Time;durP1;ratioP1;P1;durP2;ratioP2;P2;SDS_P1;SDS_P2;PMS_P1;PMS_P2;Temp;Humidity;BMP_temperature;BMP_pressure;BME280_temperature;BME280_humidity;BME280_pressure;Samples;Min_cycle;Max_cycle;Signal;HPM_P1;HPM_P2
2022/03/15 00:01:38;;;;;;;60.78;29.40;;;;;;;2.68;100.00;96076.66;4957103;29;20024;-89
2022/03/15 00:04:05;;;;;;;71.80;31.48;;;;;;;2.61;100.00;96078.31;4941553;29;20027;-90
2022/03/15 00:06:34;;;;;;;62.40;31.45;;;;;;;2.44;100.00;96075.88;4941758;29;20023;-89
2022/03/15 00:08:59;;;;;;;59.67;30.30;;;;;;;2.31;100.00;96081.63;4958332;29;20062;-89
2022/03/15 00:11:25;;;;;;;73.05;34.30;;;;;;;2.08;100.00;96077.22;4957076;29;20071;-90
2022/03/15 00:13:50;;;;;;;70.20;33.67;;;;;;;1.83;100.00;96079.94;4957061;29;20082;-89
2022/03/15 00:16:16;;;;;;;67.82;32.75;;;;;;;1.83;100.00;96087.69;4957266;29;20373;-89
2022/03/15 00:18:42;;;;;;;78.70;35.55;;;;;;;1.86;100.00;96083.97;4941380;29;20034;-90
2022/03/15 00:21:10;;;;;;;87.82;36.08;;;;;;;2.04;100.00;96085.50;4941094;29;20031;-90
2022/03/15 00:23:36;;;;;;;72.43;34.70;;;;;;;2.04;100.00;96085.50;4956779;29;20054;-90
2022/03/15 00:26:01;;;;;;;71.45;35.03;;;;;;;2.18;100.00;96086.56;4940902;29;20117;-89
2022/03/15 00:28:30;;;;;;;63.90;32.90;;;;;;;2.06;100.00;96084.38;4943550;29;20023;-90
2022/03/15 00:30:55;;;;;;;69.57;34.55;;;;;;;2.09;100.00;96094.34;4960272;29;20106;-90
2022/03/15 00:33:25;;;;;;;81.88;37.33;;;;;;;2.21;100.00;96086.22;4960457;29;20031;-90
2022/03/15 00:35:51;;;;;;;82.68;36.00;;;;;;;2.03;100.00;96089.88;4960358;29;20512;-90
2022/03/15 00:38:16;;;;;;;82.75;36.10;;;;;;;2.04;100.00;96088.91;4960299;29;20055;-89
2022/03/15 00:40:42;;;;;;;74.20;35.08;;;;;;;2.04;100.00;96086.31;4961605;29;20030;-90
2022/03/15 00:43:07;;;;;;;69.25;34.83;;;;;;;1.94;100.00;96083.94;4960374;29;20114;-89
2022/03/15 00:45:33;;;;;;;69.93;34.58;;;;;;;2.05;100.00;96092.28;4960502;29;20420;-90
2022/03/15 00:47:58;;;;;;;69.00;33.80;;;;;;;2.08;100.00;96091.94;4928416;29;20123;-90
2022/03/15 00:50:26;;;;;;;76.43;36.72;;;;;;;2.19;100.00;96093.34;4959769;29;20034;-90
2022/03/15 00:52:53;;;;;;;65.90;34.78;;;;;;;2.04;100.00;96088.91;4959903;29;20038;-90
2022/03/15 00:55:19;;;;;;;86.05;37.28;;;;;;;2.30;100.00;96092.94;4943933;29;20031;-90
2022/03/15 00:57:44;;;;;;;71.35;36.20;;;;;;;2.44;100.00;96088.81;4944224;29;20023;-90
2022/03/15 01:00:15;;;;;;;76.32;35.97;;;;;;;2.26;100.00;96084.72;4960125;29;20344;-89
2022/03/15 01:02:40;;;;;;;68.03;34.75;;;;;;;2.15;100.00;96089.47;4944724;29;20027;-90
2022/03/15 01:05:06;;;;;;;69.93;35.58;;;;;;;2.38;100.00;96087.69;4959772;29;20027;-90
2022/03/15 01:07:32;;;;;;;71.07;34.55;;;;;;;2.27;100.00;96085.50;4959625;29;20113;-90
2022/03/15 01:09:57;;;;;;;71.32;34.80;;;;;;;2.11;100.00;96086.44;4959476;29;20110;-90
2022/03/15 01:12:23;;;;;;;72.97;35.45;;;;;;;1.86;100.00;96078.81;4959753;29;20027;-90
2022/03/15 01:14:48;;;;;;;74.82;37.33;;;;;;;1.64;100.00;96067.44;4943494;29;20032;-90
2022/03/15 01:17:14;;;;;;;65.85;35.17;;;;;;;1.62;100.00;96072.00;4959664;29;20027;-90
2022/03/15 01:19:40;;;;;;;70.03;34.38;;;;;;;1.81;100.00;96068.97;4959271;29;20031;-90
2022/03/15 01:22:05;;;;;;;73.30;36.00;;;;;;;1.74;100.00;96070.63;4943408;29;20143;-89
2022/03/15 01:24:31;;;;;;;75.40;35.58;;;;;;;1.60;100.00;96069.56;4960755;29;20027;-90
2022/03/15 01:26:57;;;;;;;69.35;35.17;;;;;;;1.61;100.00;96065.22;4959222;29;20445;-90
2022/03/15 01:29:25;;;;;;;74.55;35.95;;;;;;;1.53;100.00;96066.06;4959356;29;20035;-90
2022/03/15 01:31:51;;;;;;;76.95;37.17;;;;;;;1.47;100.00;96061.53;4943874;29;20456;-89
2022/03/15 01:34:16;;;;;;;80.95;37.90;;;;;;;1.47;100.00;96057.19;4959198;29;20035;-89
2022/03/15 01:36:42;;;;;;;78.18;37.13;;;;;;;1.54;100.00;96052.94;4960520;29;20038;-89
2022/03/15 01:39:16;;;;;;;79.35;38.80;;;;;;;1.59;100.00;96051.66;4958728;28;20038;-89
2022/03/15 01:41:44;;;;;;;76.10;37.75;;;;;;;1.50;100.00;96051.69;4943085;29;20035;-89
2022/03/15 01:44:22;;;;;;;79.40;35.08;;;;;;;1.66;100.00;96050.81;4943595;29;20027;-90
2022/03/15 01:46:49;;;;;;;77.05;38.08;;;;;;;1.67;100.00;96049.84;4939710;29;20032;-90
2022/03/15 01:49:15;;;;;;;74.47;34.78;;;;;;;1.67;100.00;96049.03;4924272;29;20035;-90
2022/03/15 01:51:41;;;;;;;70.82;35.58;;;;;;;1.64;100.00;96046.78;4940607;29;20035;-90
2022/03/15 01:54:10;;;;;;;72.18;33.90;;;;;;;1.87;100.00;96036.47;4924182;29;20091;-90
2022/03/15 01:56:41;;;;;;;73.25;34.35;;;;;;;1.75;100.00;96035.25;4924184;29;20043;-90
2022/03/15 01:59:12;;;;;;;68.45;33.35;;;;;;;1.77;100.00;96033.28;4939527;29;20088;-90
2022/03/15 02:01:39;;;;;;;72.05;36.10;;;;;;;1.83;100.00;96027.47;4949440;29;20074;-90
2022/03/15 02:04:06;;;;;;;71.15;35.78;;;;;;;1.78;100.00;96022.81;4958471;29;20121;-90
2022/03/15 02:06:37;;;;;;;75.68;35.53;;;;;;;1.81;100.00;96029.41;4942033;29;20452;-90
2022/03/15 02:09:10;;;;;;;77.43;36.17;;;;;;;1.77;100.00;96023.78;4958864;29;20031;-90
2022/03/15 02:11:36;;;;;;;;;;;;;;;1.87;100.00;96022.75;4942828;29;20031;-90
2022/03/15 02:14:03;;;;;;;76.00;34.75;;;;;;;1.82;100.00;96021.47;4942241;29;19922;-90
2022/03/15 02:16:28;;;;;;;78.78;34.78;;;;;;;1.64;100.00;96024.31;4942468;29;20073;-91
2022/03/15 02:18:55;;;;;;;75.97;37.47;;;;;;;1.63;100.00;96030.47;4926918;29;20432;-90
2022/03/15 02:21:21;;;;;;;75.35;35.67;;;;;;;1.68;100.00;96022.19;4958113;29;20373;-90
2022/03/15 02:23:47;;;;;;;77.75;36.17;;;;;;;1.75;100.00;96024.91;4942312;29;20031;-90
2022/03/15 02:26:13;;;;;;;75.72;35.10;;;;;;;1.76;100.00;96014.41;4942359;29;20049;-90
2022/03/15 02:28:39;;;;;;;65.95;33.53;;;;;;;1.90;100.00;96022.41;4958294;29;20377;-90
2022/03/15 02:31:04;;;;;;;70.47;33.75;;;;;;;1.87;100.00;96015.00;4958138;29;20110;-90
2022/03/15 02:33:30;;;;;;;74.50;34.90;;;;;;;1.85;100.00;96012.59;4941991;29;20027;-90
2022/03/15 02:35:55;;;;;;;76.70;36.40;;;;;;;1.83;100.00;96010.16;4957978;29;20031;-90
2022/03/15 02:38:21;;;;;;;68.72;34.22;;;;;;;1.83;100.00;96006.78;4942468;29;20209;-90
2022/03/15 02:40:47;;;;;;;78.05;35.97;;;;;;;1.97;100.00;95997.47;4942078;29;20034;-90
2022/03/15 02:43:12;;;;;;;71.68;34.83;;;;;;;1.89;100.00;96000.13;4941962;29;20122;-90
2022/03/15 02:45:38;;;;;;;70.75;34.40;;;;;;;1.67;100.00;95993.00;4942311;29;20067;-90
2022/03/15 02:48:04;;;;;;;70.88;34.70;;;;;;;1.75;100.00;95999.06;4957776;29;20027;-90
2022/03/15 02:50:30;;;;;;;72.22;35.05;;;;;;;1.76;100.00;95995.50;4957785;28;20023;-90
2022/03/15 02:52:55;;;;;;;67.75;34.15;;;;;;;1.81;100.00;95994.03;4925892;29;20059;-90
2022/03/15 02:55:20;;;;;;;71.13;35.28;;;;;;;1.78;100.00;95988.38;4942121;29;20023;-90
2022/03/15 02:57:47;;;;;;;83.53;36.95;;;;;;;1.87;100.00;95995.13;4941641;29;20420;-90
2022/03/15 03:00:16;;;;;;;75.22;34.53;;;;;;;1.93;100.00;95989.25;4925945;29;20066;-90
2022/03/15 03:02:42;;;;;;;73.65;35.63;;;;;;;2.16;100.00;95995.41;4926276;29;20204;-90
2022/03/15 03:05:08;;;;;;;69.80;34.30;;;;;;;2.18;100.00;95991.66;4958704;29;20024;-90
2022/03/15 03:07:34;;;;;;;67.03;33.78;;;;;;;2.11;100.00;95983.00;4958663;29;20459;-90
2022/03/15 03:10:00;;;;;;;69.13;34.35;;;;;;;2.12;100.00;95985.41;4957772;29;20034;-90
2022/03/15 03:12:30;;;;;;;65.18;34.00;;;;;;;2.14;100.00;95985.25;4926209;29;20027;-90
2022/03/15 03:14:55;;;;;;;65.63;34.53;;;;;;;2.11;100.00;95978.63;4942051;29;20376;-90
2022/03/15 03:17:24;;;;;;;73.40;33.88;;;;;;;2.14;100.00;95979.25;4925811;29;20063;-90
2022/03/15 03:19:50;;;;;;;67.25;34.08;;;;;;;2.02;100.00;95976.28;4941414;29;20027;-90
2022/03/15 03:22:16;;;;;;;70.00;33.20;;;;;;;2.03;100.00;95976.13;4957246;29;20031;-90
2022/03/15 03:24:42;;;;;;;61.58;31.02;;;;;;;2.11;100.00;95973.44;4941445;29;20031;-90
2022/03/15 03:27:10;;;;;;;63.85;31.90;;;;;;;2.16;100.00;95970.34;4957526;29;20031;-90
2022/03/15 03:29:36;;;;;;;63.90;31.77;;;;;;;2.18;100.00;95967.59;4941698;29;20113;-90
2022/03/15 03:32:02;;;;;;;61.50;30.60;;;;;;;2.24;100.00;95959.13;4941268;29;20054;-90
2022/03/15 03:34:27;;;;;;;59.83;28.45;;;;;;;2.28;100.00;95967.34;4957111;29;20031;-90
2022/03/15 03:36:52;;;;;;;59.95;29.92;;;;;;;2.30;100.00;95967.97;4941163;29;20034;-90
2022/03/15 03:39:19;;;;;;;52.67;28.95;;;;;;;2.38;100.00;95970.50;4925592;29;20360;-90
2022/03/15 03:41:44;;;;;;;62.30;29.42;;;;;;;2.30;100.00;95973.16;4925369;29;20039;-90
2022/03/15 03:44:10;;;;;;;67.55;31.58;;;;;;;2.21;100.00;95968.03;4941431;29;20360;-90
2022/03/15 03:46:35;;;;;;;64.90;31.27;;;;;;;2.20;100.00;95975.97;4941198;29;20038;-90
2022/03/15 03:49:00;;;;;;;57.95;29.58;;;;;;;2.23;100.00;95986.78;4922148;29;20231;-90
2022/03/15 03:51:26;;;;;;;54.38;28.92;;;;;;;2.28;100.00;95977.69;4941265;29;20425;-91
2022/03/15 03:53:51;;;;;;;57.80;29.42;;;;;;;2.28;100.00;95981.06;4941082;29;20449;-91
2022/03/15 03:56:17;;;;;;;67.10;31.27;;;;;;;2.33;100.00;95986.53;4941326;29;20134;-91
2022/03/15 03:58:44;;;;;;;60.53;29.65;;;;;;;2.41;100.00;95977.91;4941127;29;20034;-90
2022/03/15 04:01:10;;;;;;;50.88;27.00;;;;;;;2.54;100.00;95992.81;4941069;29;20027;-91
2022/03/15 04:03:36;;;;;;;55.80;27.45;;;;;;;2.66;100.00;95988.81;4943517;29;20516;-91
2022/03/15 04:06:02;;;;;;;55.17;26.13;;;;;;;2.61;100.00;95992.91;4961902;29;20448;-91
2022/03/15 04:08:28;;;;;;;54.90;26.60;;;;;;;2.71;100.00;95990.06;4944840;29;20122;-90
2022/03/15 04:10:53;;;;;;;58.78;28.83;;;;;;;2.71;100.00;95992.66;4959867;29;20045;-90
2022/03/15 04:13:19;;;;;;;57.72;29.55;;;;;;;2.77;100.00;95991.97;4941084;29;20096;-91
2022/03/15 04:15:51;;;;;;;55.80;27.35;;;;;;;2.72;100.00;95986.50;4925501;29;20396;-90
2022/03/15 04:18:17;;;;;;;51.65;26.73;;;;;;;2.77;100.00;95992.75;4925652;29;20103;-90
2022/03/15 04:20:42;;;;;;;53.65;26.70;;;;;;;2.73;100.00;95995.91;4925685;29;20036;-90
2022/03/15 04:23:11;;;;;;;59.30;28.55;;;;;;;2.74;100.00;96000.09;4925517;29;20345;-90
2022/03/15 04:25:38;;;;;;;54.85;27.67;;;;;;;2.49;100.00;96001.09;4925762;29;20091;-90
2022/03/15 04:28:03;;;;;;;64.10;30.20;;;;;;;2.43;100.00;96003.59;4925409;29;20039;-90
2022/03/15 04:30:30;;;;;;;70.47;31.25;;;;;;;2.35;100.00;95994.94;4925243;29;20035;-91
2022/03/15 04:32:56;;;;;;;65.63;30.90;;;;;;;2.37;100.00;96000.72;4925429;29;20069;-91
2022/03/15 04:35:22;;;;;;;67.93;33.05;;;;;;;2.43;100.00;95996.66;4925207;29;20046;-90
2022/03/15 04:37:49;;;;;;;63.13;30.75;;;;;;;2.44;100.00;96007.78;4941216;29;20345;-91
2022/03/15 04:40:16;;;;;;;66.55;31.80;;;;;;;2.37;100.00;95998.16;4940821;29;20039;-91
2022/03/15 04:42:41;;;;;;;62.85;30.52;;;;;;;2.52;100.00;96000.78;4941068;29;20032;-90
2022/03/15 04:45:08;;;;;;;68.03;31.27;;;;;;;2.54;100.00;96004.00;4941095;29;20032;-90
2022/03/15 04:47:33;;;;;;;61.30;30.27;;;;;;;2.47;100.00;96004.88;4925111;29;20449;-90
2022/03/15 04:49:59;;;;;;;61.38;30.27;;;;;;;2.31;100.00;95998.84;4940859;29;20035;-90
2022/03/15 04:52:24;;;;;;;66.15;31.75;;;;;;;2.29;100.00;95998.19;4924735;29;20032;-90
2022/03/15 04:54:50;;;;;;;66.97;31.13;;;;;;;2.24;100.00;95992.75;4924797;29;20501;-91
2022/03/15 04:57:15;;;;;;;65.38;31.50;;;;;;;2.26;100.00;95990.78;4924893;29;20437;-90
2022/03/15 04:59:41;;;;;;;63.13;31.48;;;;;;;2.24;100.00;95997.94;4925001;29;20094;-90
2022/03/15 05:02:06;;;;;;;63.20;30.88;;;;;;;2.29;100.00;95993.03;4920695;29;20043;-90
2022/03/15 05:04:32;;;;;;;60.40;29.83;;;;;;;2.35;100.00;95997.53;4960798;29;20049;-90
2022/03/15 05:06:58;;;;;;;62.15;30.35;;;;;;;2.35;100.00;96002.69;4959532;29;20027;-90
2022/03/15 05:09:24;;;;;;;68.78;30.70;;;;;;;2.26;100.00;95990.78;4943780;29;20121;-91
2022/03/15 05:11:49;;;;;;;64.90;30.58;;;;;;;2.28;100.00;95994.00;4959435;29;20035;-90
2022/03/15 05:14:15;;;;;;;57.80;29.50;;;;;;;2.34;100.00;95995.91;4958465;28;20039;-90
2022/03/15 05:16:41;;;;;;;60.47;31.10;;;;;;;2.38;100.00;95998.97;4959349;29;20035;-90
2022/03/15 05:19:07;;;;;;;70.95;33.03;;;;;;;2.30;100.00;95989.50;4959373;29;20495;-90
2022/03/15 05:21:32;;;;;;;60.55;28.73;;;;;;;2.52;100.00;96000.78;4959302;29;20031;-90
2022/03/15 05:23:58;;;;;;;61.42;29.48;;;;;;;2.68;100.00;95994.63;4959391;29;20038;-90
2022/03/15 05:26:24;;;;;;;55.65;29.42;;;;;;;2.73;100.00;95990.72;4943337;29;20067;-89
2022/03/15 05:28:50;;;;;;;57.40;28.55;;;;;;;2.57;100.00;95991.66;4944068;29;20053;-90
2022/03/15 05:31:17;;;;;;;63.13;30.73;;;;;;;2.53;100.00;95980.88;4927460;29;20121;-89
2022/03/15 05:33:43;;;;;;;65.22;32.08;;;;;;;2.57;100.00;95984.69;4959552;29;20130;-90
2022/03/15 05:36:09;;;;;;;57.67;30.30;;;;;;;2.60;100.00;95981.78;4943669;29;20085;-90
2022/03/15 05:38:39;;;;;;;61.13;30.05;;;;;;;2.81;100.00;95985.44;4959076;29;20063;-91
2022/03/15 05:41:07;;;;;;;54.83;27.83;;;;;;;3.00;100.00;95981.53;4958907;29;20027;-90
2022/03/15 05:43:33;;;;;;;54.58;27.83;;;;;;;3.03;100.00;95980.38;4943328;29;20027;-90
2022/03/15 05:45:58;;;;;;;61.78;30.17;;;;;;;2.94;100.00;95982.22;4943099;29;20031;-90
2022/03/15 05:48:25;;;;;;;62.45;29.95;;;;;;;2.93;100.00;95978.84;4927278;29;20031;-90
2022/03/15 05:50:50;;;;;;;61.17;29.65;;;;;;;2.95;100.00;95982.06;4942466;29;20035;-90
2022/03/15 05:53:16;;;;;;;54.95;28.23;;;;;;;3.13;100.00;95990.44;4943034;29;20502;-90
2022/03/15 05:55:41;;;;;;;61.03;28.65;;;;;;;3.07;100.00;95986.78;4942794;29;20035;-90
2022/03/15 05:58:06;;;;;;;62.13;28.38;;;;;;;3.02;100.00;95999.47;4942674;29;20027;-91
2022/03/15 06:00:32;;;;;;;57.88;28.13;;;;;;;3.11;100.00;95990.63;4923923;29;20095;-90
2022/03/15 06:02:58;;;;;;;51.40;26.23;;;;;;;3.18;100.00;95986.34;4923718;29;20032;-90
2022/03/15 06:05:24;;;;;;;51.15;26.58;;;;;;;3.38;100.00;95986.59;4934309;29;20023;-91
2022/03/15 06:07:51;;;;;;;50.95;26.23;;;;;;;3.60;100.00;95983.25;4942947;29;20450;-91
2022/03/15 06:10:21;;;;;;;50.97;26.52;;;;;;;3.75;100.00;95981.41;4958390;29;20066;-91
2022/03/15 06:12:48;;;;;;;48.88;25.75;;;;;;;3.62;100.00;95983.84;4942666;29;20352;-91
2022/03/15 06:15:13;;;;;;;51.58;26.67;;;;;;;3.57;100.00;95986.19;4926814;29;20465;-91
2022/03/15 06:17:45;;;;;;;51.50;25.98;;;;;;;3.85;100.00;95982.88;4942376;29;20066;-90
2022/03/15 06:20:14;;;;;;;56.28;27.10;;;;;;;3.79;100.00;95989.59;4958108;29;20027;-90
2022/03/15 06:22:40;;;;;;;52.53;25.58;;;;;;;3.91;100.00;95982.94;4942376;29;20068;-90
2022/03/15 06:25:06;;;;;;;50.80;25.85;;;;;;;3.77;100.00;95987.22;4957983;28;20023;-89
2022/03/15 06:27:32;;;;;;;51.13;25.88;;;;;;;3.82;100.00;95990.03;4942431;29;20057;-90
2022/03/15 06:29:58;;;;;;;52.58;25.90;;;;;;;3.98;100.00;95990.78;4958027;29;20027;-90
2022/03/15 06:32:24;;;;;;;52.22;26.52;;;;;;;3.92;100.00;95991.53;4958019;29;20023;-90
2022/03/15 06:34:50;;;;;;;55.35;25.77;;;;;;;3.79;100.00;95989.59;4959170;29;20038;-89
2022/03/15 06:37:15;;;;;;;53.88;26.23;;;;;;;3.78;100.00;95988.81;4958332;29;20027;-90
2022/03/15 06:39:41;;;;;;;46.45;23.98;;;;;;;4.07;100.00;95997.47;4957819;29;20192;-89
2022/03/15 06:42:11;;;;;;;53.90;25.73;;;;;;;4.18;100.00;96000.56;4942336;29;20027;-90
2022/03/15 06:44:37;;;;;;;50.25;25.95;;;;;;;4.18;100.00;95996.16;4959409;29;20023;-90
2022/03/15 06:47:03;;;;;;;52.08;25.75;;;;;;;4.24;100.00;96002.41;4957859;29;20027;-90
2022/03/15 06:49:29;;;;;;;49.22;25.25;;;;;;;4.70;100.00;96005.53;4958994;29;20486;-89
2022/03/15 06:51:54;;;;;;;49.63;24.77;;;;;;;4.88;100.00;96005.88;4957948;29;20067;-90
2022/03/15 06:54:19;;;;;;;50.38;25.58;;;;;;;4.85;100.00;96014.03;4957718;29;20041;-90
2022/03/15 06:56:45;;;;;;;58.03;27.60;;;;;;;4.75;100.00;96006.59;4957743;29;20102;-90
2022/03/15 06:59:15;;;;;;;46.95;25.10;;;;;;;4.86;100.00;96005.25;4957690;29;20085;-90
2022/03/15 07:01:40;;;;;;;50.20;27.33;;;;;;;5.18;100.00;96016.03;4941825;29;20074;-90
2022/03/15 07:04:06;;;;;;;54.30;26.13;;;;;;;5.11;100.00;96017.00;4941823;29;20059;-90
2022/03/15 07:06:31;;;;;;;51.20;25.35;;;;;;;4.86;100.00;96010.44;4957666;29;20031;-90
2022/03/15 07:08:57;;;;;;;45.67;23.75;;;;;;;5.20;100.00;96013.22;4958667;29;20364;-90
2022/03/15 07:11:22;;;;;;;54.05;26.10;;;;;;;5.60;100.00;96003.00;4957432;29;20054;-90
2022/03/15 07:13:47;;;;;;;47.10;25.55;;;;;;;5.68;100.00;96003.84;4941493;29;20031;-90
2022/03/15 07:16:14;;;;;;;49.65;25.73;;;;;;;5.58;100.00;95996.41;4957527;29;20348;-90
2022/03/15 07:18:39;;;;;;;50.40;25.13;;;;;;;5.32;100.00;96000.53;4941450;29;20019;-90
2022/03/15 07:21:05;;;;;;;51.75;26.95;;;;;;;5.19;100.00;96007.25;4941562;29;20371;-89
2022/03/15 07:23:30;;;;;;;45.45;25.08;;;;;;;5.87;100.00;96000.50;4957525;29;20031;-89
2022/03/15 07:25:56;;;;;;;46.13;25.40;;;;;;;6.12;100.00;96001.75;4941831;29;20085;-90
2022/03/15 07:28:21;;;;;;;49.45;23.70;;;;;;;6.39;100.00;96007.00;4958501;29;20119;-90
2022/03/15 07:30:46;;;;;;;40.70;23.85;;;;;;;6.67;100.00;96016.41;4957834;29;20030;-90
2022/03/15 07:33:12;;;;;;;45.00;24.98;;;;;;;6.03;100.00;96009.78;4957331;29;20118;-90
2022/03/15 07:35:37;;;;;;;50.17;24.45;;;;;;;6.55;100.00;96011.03;4941457;29;20034;-90
2022/03/15 07:38:03;;;;;;;46.35;23.98;;;;;;;6.25;100.00;96001.78;4958913;28;20027;-90
2022/03/15 07:40:29;;;;;;;43.15;23.40;;;;;;;6.81;100.00;96009.38;4961301;29;20117;-90
2022/03/15 07:42:55;;;;;;;45.08;25.20;;;;;;;6.28;100.00;96014.41;4945398;29;20030;-90
2022/03/15 07:45:20;;;;;;;48.00;23.63;;;;;;;6.67;100.00;96019.03;4945380;29;20122;-90
2022/03/15 07:47:49;;;;;;;46.45;24.08;;;;;;;6.64;100.00;96015.81;4945342;29;20109;-89
2022/03/15 07:50:16;;;;;;;45.17;25.85;;;;;;;7.35;100.00;96023.13;4929718;29;20027;-90
2022/03/15 07:52:41;;;;;;;45.38;24.30;;;;;;;6.89;100.00;96028.22;4961285;29;20026;-90
2022/03/15 07:55:07;;;;;;;47.17;23.40;;;;;;;7.65;100.00;96025.22;4945028;29;20027;-90
2022/03/15 07:57:34;;;;;;;46.50;25.25;;;;;;;6.81;100.00;96031.03;4960896;29;20027;-90
2022/03/15 07:59:59;;;;;;;43.33;24.33;;;;;;;7.58;100.00;96037.47;4960780;29;20539;-90
2022/03/15 08:02:25;;;;;;;53.58;24.85;;;;;;;7.48;100.00;96046.56;4929188;29;20050;-90
2022/03/15 08:04:53;;;;;;;50.30;25.45;;;;;;;7.81;100.00;96044.78;4944892;29;20023;-90
2022/03/15 08:07:21;;;;;;;48.85;26.10;;;;;;;7.38;100.00;96051.38;4945002;29;20023;-90
2022/03/15 08:09:46;;;;;;;45.70;24.92;;;;;;;8.21;100.00;96049.03;4928959;29;20058;-90
2022/03/15 08:12:11;;;;;;;46.95;24.73;;;;;;;8.02;100.00;96053.34;4961884;29;20031;-90
2022/03/15 08:14:37;;;;;;;45.55;25.10;;;;;;;8.26;100.00;96051.81;4960546;29;20053;-90
2022/03/15 08:17:03;;;;;;;43.55;24.50;;;;;;;8.88;100.00;96053.78;4944758;29;20030;-90
2022/03/15 08:19:28;;;;;;;41.63;24.00;;;;;;;8.57;100.00;96055.44;4928655;29;20019;-90
2022/03/15 08:21:54;;;;;;;40.58;23.80;;;;;;;8.89;100.00;96049.38;4944597;29;20393;-90
2022/03/15 08:24:22;;;;;;;46.17;24.40;;;;;;;8.83;100.00;96047.63;4944453;29;20031;-89
2022/03/15 08:26:47;;;;;;;47.05;24.73;;;;;;;8.05;100.00;96056.34;4944551;29;20039;-88
2022/03/15 08:29:12;;;;;;;42.92;23.50;;;;;;;8.96;100.00;96050.09;4944808;29;20424;-89
2022/03/15 08:31:38;;;;;;;46.60;24.58;;;;;;;8.87;100.00;96049.56;4944719;29;20130;-90
2022/03/15 08:34:03;;;;;;;41.97;23.80;;;;;;;9.32;100.00;96045.13;4960209;29;20023;-89
2022/03/15 08:36:29;;;;;;;42.83;22.45;;;;;;;9.37;100.00;96041.84;4945028;29;20030;-89
2022/03/15 08:39:04;;;;;;;44.28;22.58;;;;;;;9.67;100.00;96039.31;4944631;29;20030;-89
2022/03/15 08:41:29;;;;;;;39.10;22.63;;;;;;;9.65;100.00;96036.13;4928669;29;20027;-89
2022/03/15 08:43:55;;;;;;;44.92;23.67;;;;;;;9.61;100.00;96038.38;4944516;29;20054;-89
2022/03/15 08:46:22;;;;;;;40.78;22.73;;;;;;;9.13;100.00;96032.03;4961438;29;20024;-89
2022/03/15 08:48:48;;;;;;;43.17;23.60;;;;;;;9.32;100.00;96039.88;4960146;28;20460;-89
2022/03/15 08:51:14;;;;;;;45.92;21.48;;;;;;;9.13;100.00;96041.72;4961233;29;20027;-89
2022/03/15 08:53:40;;;;;;;38.30;22.67;;;;;;;9.80;100.00;96035.72;4961248;29;20059;-89
2022/03/15 08:56:06;;;;;;;40.92;22.95;;;;;;;10.25;100.00;96049.44;4959928;29;20050;-88
2022/03/15 08:58:31;;;;;;;42.85;23.55;;;;;;;10.10;100.00;96047.25;4928716;29;20030;-89
2022/03/15 09:00:58;;;;;;;46.88;23.98;;;;;;;9.80;100.00;96046.19;4944479;29;20042;-89
2022/03/15 09:03:24;;;;;;;45.08;22.45;;;;;;;8.62;100.00;96049.56;4960030;29;20070;-89
2022/03/15 09:05:49;;;;;;;40.60;22.13;;;;;;;9.66;100.00;96048.19;4944377;29;20431;-89
2022/03/15 09:08:15;;;;;;;46.60;24.33;;;;;;;9.08;100.00;96047.59;4960175;29;20031;-89
2022/03/15 09:10:44;;;;;;;44.53;24.42;;;;;;;9.74;100.00;96045.25;4944281;29;20031;-89
2022/03/15 09:13:10;;;;;;;35.63;21.30;;;;;;;10.23;100.00;96047.06;4944617;29;20312;-89
2022/03/15 09:15:35;;;;;;;41.08;22.58;;;;;;;9.66;100.00;96036.91;4944245;29;20035;-89
2022/03/15 09:18:02;;;;;;;39.33;22.50;;;;;;;9.30;100.00;96034.09;4959739;29;20035;-89
2022/03/15 09:20:27;;;;;;;43.17;23.35;;;;;;;9.92;100.00;96043.66;4943995;29;20035;-89
2022/03/15 09:22:53;;;;;;;39.17;22.63;;;;;;;10.41;100.00;96037.56;4927939;29;20369;-89
2022/03/15 09:25:19;;;;;;;51.67;23.77;;;;;;;10.47;100.00;96041.91;4943636;29;20027;-89
2022/03/15 09:27:46;;;;;;;42.65;23.30;;;;;;;10.80;100.00;96039.78;4943642;29;20336;-89
2022/03/15 09:30:12;;;;;;;41.03;23.70;;;;;;;10.48;100.00;96043.53;4959468;29;20117;-89
2022/03/15 09:32:37;;;;;;;48.20;24.13;;;;;;;10.15;100.00;96040.31;4960584;29;20067;-88
2022/03/15 09:35:03;;;;;;;40.53;23.20;;;;;;;10.02;100.00;96030.81;4943570;29;20433;-88
2022/03/15 09:37:29;;;;;;;46.65;24.40;;;;;;;10.44;100.00;96026.63;4928063;29;20328;-89
2022/03/15 09:39:57;;;;;;;53.75;25.35;;;;;;;9.89;100.00;96030.97;4943548;29;20384;-89
2022/03/15 09:42:24;;;;;;;41.13;23.58;;;;;;;10.33;100.00;96033.41;4943503;29;20035;-89
2022/03/15 09:44:50;;;;;;;41.45;23.90;;;;;;;10.33;100.00;96031.59;4927914;29;20027;-89
2022/03/15 09:47:17;;;;;;;43.70;24.77;;;;;;;10.94;100.00;96032.50;4943460;29;20054;-89
2022/03/15 09:49:44;;;;;;;43.75;24.52;;;;;;;10.88;98.69;96028.97;4943168;29;20082;-89
2022/03/15 09:52:11;;;;;;;49.85;25.25;;;;;;;10.03;100.00;96024.53;4927522;29;20497;-88
2022/03/15 09:54:37;;;;;;;46.95;25.38;;;;;;;9.55;100.00;96031.41;4943166;29;20078;-88
2022/03/15 09:57:04;;;;;;;48.53;25.05;;;;;;;9.83;100.00;96021.41;4942932;29;20131;-88
2022/03/15 09:59:30;;;;;;;50.50;26.55;;;;;;;10.13;100.00;96024.03;4943344;28;20027;-88
2022/03/15 10:01:57;;;;;;;43.13;24.83;;;;;;;10.62;100.00;96010.03;4942211;29;20066;-89
2022/03/15 10:04:23;;;;;;;47.03;25.90;;;;;;;10.76;100.00;96010.63;4942815;29;20034;-89
2022/03/15 10:06:50;;;;;;;42.55;26.23;;;;;;;10.35;100.00;96015.66;4926987;29;20028;-89
2022/03/15 10:09:26;;;;;;;51.05;27.83;;;;;;;9.99;100.00;96020.00;4927228;29;20027;-89
2022/03/15 10:11:52;;;;;;;45.75;26.20;;;;;;;10.80;100.00;96019.63;4943212;29;20328;-89
2022/03/15 10:14:19;;;;;;;50.92;27.35;;;;;;;10.96;100.00;96027.84;4958664;29;20057;-89
2022/03/15 10:16:45;;;;;;;48.17;26.25;;;;;;;10.97;100.00;96024.97;4942619;29;20110;-89
2022/03/15 10:19:13;;;;;;;50.30;26.30;;;;;;;11.54;99.61;96028.00;4942741;29;20424;-89
2022/03/15 10:21:49;;;;;;;44.72;24.75;;;;;;;11.56;90.80;96021.50;4942760;29;20023;-88
2022/03/15 10:24:23;;;;;;;58.03;26.10;;;;;;;11.62;94.09;96027.66;4958180;29;20027;-89
2022/03/15 10:26:50;;;;;;;46.63;25.67;;;;;;;11.24;100.00;96013.22;4958222;29;20027;-88
2022/03/15 10:29:17;;;;;;;50.47;27.02;;;;;;;11.43;100.00;96017.28;4942844;29;20027;-88
2022/03/15 10:31:43;;;;;;;48.42;25.73;;;;;;;11.56;88.71;96013.63;4942347;29;20471;-88
2022/03/15 10:34:10;;;;;;;44.97;25.92;;;;;;;11.13;88.27;96009.59;4942378;29;20086;-88
2022/03/15 10:36:42;;;;;;;46.40;27.50;;;;;;;10.73;100.00;96009.25;4942303;29;20027;-88
2022/03/15 10:39:18;;;;;;;51.15;27.75;;;;;;;11.42;93.20;96005.19;4926697;29;20447;-88
2022/03/15 10:41:43;;;;;;;56.55;27.20;;;;;;;11.80;84.93;96008.28;4942287;29;20424;-89
2022/03/15 10:44:20;;;;;;;52.95;29.05;;;;;;;10.48;100.00;95995.53;4942439;29;20121;-89
2022/03/15 10:46:58;;;;;;;50.28;27.83;;;;;;;11.01;100.00;96006.94;4926604;29;20082;-89
2022/03/15 10:49:24;;;;;;;48.08;27.75;;;;;;;11.00;100.00;96008.78;4942365;29;20031;-89
2022/03/15 10:51:49;;;;;;;50.28;27.67;;;;;;;11.03;97.96;96004.91;4957899;29;20063;-88
2022/03/15 10:54:15;;;;;;;44.65;26.35;;;;;;;11.02;92.72;95996.25;4942021;29;20086;-89
2022/03/15 10:56:41;;;;;;;55.15;27.88;;;;;;;10.51;100.00;95995.91;4958036;29;20027;-88
2022/03/15 10:59:16;;;;;;;49.10;29.27;;;;;;;10.35;100.00;95996.53;4959409;29;20054;-89
2022/03/15 11:01:42;;;;;;;56.83;29.95;;;;;;;10.37;100.00;95990.03;4957798;29;20031;-88
2022/03/15 11:04:09;;;;;;;48.63;28.70;;;;;;;10.81;95.34;95994.19;4942154;29;20310;-88
2022/03/15 11:06:43;;;;;;;51.00;29.30;;;;;;;10.88;97.08;95985.19;4941632;29;20162;-88
2022/03/15 11:09:24;;;;;;;55.97;28.80;;;;;;;11.13;96.88;95985.97;4958763;29;20033;-89
2022/03/15 11:12:06;;;;;;;54.28;30.20;;;;;;;10.70;99.71;95977.44;4957896;28;20031;-89
2022/03/15 11:14:41;;;;;;;59.58;31.30;;;;;;;10.64;100.00;95980.97;4957744;29;20086;-89